createdAt,value
2018-08-03T00:00:44.496Z,21.50
2018-08-03T00:03:14.779Z,18.57
2018-08-03T00:05:44.529Z,19.27
2018-08-03T00:08:15.158Z,21.63
2018-08-03T00:10:44.781Z,16.67
2018-08-03T00:13:14.188Z,17.00
2018-08-03T00:15:43.677Z,24.20
2018-08-03T00:18:13.154Z,20.93
2018-08-03T00:20:42.909Z,20.80
2018-08-03T00:23:12.411Z,26.10
2018-08-03T00:25:42.024Z,18.50
2018-08-03T00:28:11.764Z,22.00
2018-08-03T00:30:42.201Z,20.03
2018-08-03T00:33:11.765Z,17.03
2018-08-03T00:35:41.200Z,16.90
2018-08-03T00:38:10.990Z,22.73
2018-08-03T00:40:40.448Z,19.30
2018-08-03T00:43:10.999Z,16.90
2018-08-03T00:45:40.642Z,25.10
2018-08-03T00:48:10.202Z,17.80
2018-08-03T00:50:39.799Z,18.60
2018-08-03T00:53:09.435Z,15.80
2018-08-03T00:55:38.841Z,21.93
2018-08-03T00:58:08.719Z,19.30
2018-08-03T01:00:40.240Z,18.73
2018-08-03T01:03:09.845Z,17.90
2018-08-03T01:05:39.333Z,19.60
2018-08-03T01:08:08.682Z,21.33
2018-08-03T01:10:38.428Z,22.00
2018-08-03T01:13:07.880Z,19.60
2018-08-03T01:15:37.267Z,15.23
2018-08-03T01:18:06.689Z,18.20
2018-08-03T01:20:36.131Z,22.03
2018-08-03T01:23:05.520Z,18.70
2018-08-03T01:25:34.917Z,22.07
2018-08-03T01:28:04.421Z,16.83
2018-08-03T01:30:34.151Z,16.97
2018-08-03T01:33:03.609Z,22.93
2018-08-03T01:35:33.013Z,19.53
2018-08-03T01:38:02.414Z,21.60
2018-08-03T01:40:32.298Z,18.07
2018-08-03T01:43:01.827Z,19.67
2018-08-03T01:45:31.333Z,18.20
2018-08-03T01:48:00.788Z,21.77
2018-08-03T01:50:30.318Z,17.37
2018-08-03T01:52:59.697Z,20.87
2018-08-03T01:55:29.124Z,16.77
2018-08-03T01:57:58.564Z,18.70
2018-08-03T02:00:28.015Z,19.13
2018-08-03T02:02:57.468Z,16.97
2018-08-03T02:05:26.861Z,19.23
2018-08-03T02:07:56.343Z,19.10
2018-08-03T02:10:25.786Z,17.80
2018-08-03T02:12:55.227Z,18.00
2018-08-03T02:15:24.698Z,19.53
2018-08-03T02:17:54.500Z,20.80
2018-08-03T02:20:23.865Z,30.33
2018-08-03T02:22:53.240Z,29.10
2018-08-03T02:25:22.783Z,19.00
2018-08-03T02:27:52.380Z,20.03
2018-08-03T02:30:21.813Z,17.07
2018-08-03T02:32:51.279Z,17.73
2018-08-03T02:35:20.718Z,22.53
2018-08-03T02:37:50.074Z,18.33
2018-08-03T02:40:19.752Z,21.00
2018-08-03T02:42:49.503Z,23.53
2018-08-03T02:45:18.902Z,20.27
2018-08-03T02:47:48.469Z,18.20
2018-08-03T02:50:17.859Z,20.27
2018-08-03T02:52:47.351Z,21.90
2018-08-03T02:55:16.756Z,17.63
2018-08-03T02:57:46.209Z,20.90
2018-08-03T03:00:15.668Z,22.57
2018-08-03T03:02:45.379Z,16.10
2018-08-03T03:05:14.763Z,20.00
2018-08-03T03:07:44.192Z,21.60
2018-08-03T03:10:15.221Z,21.50
2018-08-03T03:12:44.669Z,25.77
2018-08-03T03:15:14.136Z,23.07
2018-08-03T03:17:43.697Z,17.37
2018-08-03T03:20:13.178Z,20.07
2018-08-03T03:22:42.772Z,17.70
2018-08-03T03:25:12.225Z,18.13
2018-08-03T03:27:41.666Z,19.47
2018-08-03T03:30:11.086Z,17.57
2018-08-03T03:32:40.521Z,17.97
2018-08-03T03:35:10.137Z,21.07
2018-08-03T03:37:39.551Z,20.93
2018-08-03T03:40:09.114Z,16.97
2018-08-03T03:42:38.520Z,17.53
2018-08-03T03:45:07.954Z,22.57
2018-08-03T03:47:37.473Z,18.20
2018-08-03T03:50:07.137Z,18.30
2018-08-03T03:52:36.779Z,19.90
2018-08-03T03:55:06.344Z,24.30
2018-08-03T03:57:35.737Z,19.60
2018-08-03T04:00:06.776Z,24.30
2018-08-03T04:02:36.857Z,22.30
2018-08-03T04:05:07.132Z,25.43
2018-08-03T04:07:36.550Z,22.40
2018-08-03T04:10:06.482Z,25.50
2018-08-03T04:12:35.869Z,20.30
2018-08-03T04:15:06.185Z,26.07
2018-08-03T04:17:35.696Z,18.50
2018-08-03T04:20:05.911Z,23.40
2018-08-03T04:22:35.500Z,20.20
2018-08-03T04:25:06.118Z,25.43
2018-08-03T04:27:36.000Z,22.33
2018-08-03T04:30:06.465Z,25.00
2018-08-03T04:32:35.824Z,22.73
2018-08-03T04:35:05.854Z,20.60
2018-08-03T04:37:35.325Z,19.27
2018-08-03T04:40:05.569Z,25.60
2018-08-03T04:42:35.031Z,21.70
2018-08-03T04:45:05.113Z,23.00
2018-08-03T04:47:34.637Z,35.90
2018-08-03T04:50:04.649Z,19.77
2018-08-03T04:52:34.152Z,20.60
2018-08-03T04:55:04.101Z,21.10
2018-08-03T04:57:33.839Z,18.47
2018-08-03T05:00:03.899Z,20.20
2018-08-03T05:02:33.349Z,23.27
2018-08-03T05:05:02.984Z,22.43
2018-08-03T05:07:32.402Z,17.20
2018-08-03T05:10:01.843Z,22.80
2018-08-03T05:12:31.252Z,22.00
2018-08-03T05:15:00.641Z,26.17
2018-08-03T05:17:30.084Z,18.93
2018-08-03T05:19:59.514Z,19.47
2018-08-03T05:22:29.265Z,22.00
2018-08-03T05:24:58.668Z,20.83
2018-08-03T05:27:28.095Z,30.57
2018-08-03T05:29:57.512Z,24.70
2018-08-03T05:32:27.004Z,16.40
2018-08-03T05:34:56.399Z,21.20
2018-08-03T05:37:26.334Z,29.10
2018-08-03T05:39:56.004Z,19.60
2018-08-03T05:42:25.441Z,18.40
2018-08-03T05:44:55.181Z,21.43
2018-08-03T05:47:24.610Z,27.20
2018-08-03T05:49:54.081Z,19.27
2018-08-03T05:52:24.267Z,26.00
2018-08-03T05:54:53.871Z,19.47
2018-08-03T05:57:23.256Z,22.90
2018-08-03T05:59:52.650Z,21.87
2018-08-03T06:02:22.324Z,19.07
2018-08-03T06:04:52.407Z,17.07
2018-08-03T06:07:21.798Z,19.93
2018-08-03T06:09:51.665Z,20.30
2018-08-03T06:12:21.035Z,16.93
2018-08-03T06:14:50.485Z,19.60
2018-08-03T06:17:19.891Z,21.00
2018-08-03T06:19:49.328Z,22.47
2018-08-03T06:22:18.706Z,20.03
2018-08-03T06:24:48.121Z,23.00
2018-08-03T06:27:17.901Z,18.60
2018-08-03T06:29:47.425Z,29.87
2018-08-03T06:32:16.967Z,15.43
2018-08-03T06:34:46.411Z,18.87
2018-08-03T06:37:15.866Z,22.30
2018-08-03T06:39:45.306Z,19.17
2018-08-03T06:42:14.760Z,21.00
2018-08-03T06:44:44.204Z,19.53
2018-08-03T06:47:13.598Z,22.23
2018-08-03T06:49:43.036Z,16.93
2018-08-03T06:52:12.510Z,21.13
2018-08-03T06:54:41.973Z,26.50
2018-08-03T06:57:11.416Z,21.83
2018-08-03T06:59:41.680Z,23.13
2018-08-03T07:02:11.695Z,20.83
2018-08-03T07:04:41.117Z,20.93
2018-08-03T07:07:11.436Z,17.40
2018-08-03T07:09:41.710Z,22.10
2018-08-03T07:12:11.358Z,27.23
2018-08-03T07:14:40.947Z,21.73
2018-08-03T07:17:10.568Z,20.50
2018-08-03T07:19:40.097Z,22.70
2018-08-03T07:22:09.535Z,33.00
2018-08-03T07:24:38.964Z,19.93
2018-08-03T07:27:08.372Z,25.17
2018-08-03T07:29:37.864Z,22.20
2018-08-03T07:32:07.353Z,22.33
2018-08-03T07:34:36.952Z,17.47
2018-08-03T07:37:06.673Z,17.70
2018-08-03T07:39:36.075Z,31.13
2018-08-03T07:42:05.517Z,36.50
2018-08-03T07:44:34.921Z,25.83
2018-08-03T07:47:04.592Z,23.13
2018-08-03T07:49:33.996Z,18.10
2018-08-03T07:52:03.981Z,19.53
2018-08-03T07:54:33.408Z,26.10
2018-08-03T07:57:02.875Z,15.87
2018-08-03T07:59:33.164Z,19.87
2018-08-03T08:02:03.157Z,17.83
2018-08-03T08:04:33.060Z,20.60
2018-08-03T08:07:02.604Z,16.77
2018-08-03T08:09:33.020Z,24.37
2018-08-03T08:12:02.832Z,17.63
2018-08-03T08:14:32.224Z,25.20
2018-08-03T08:17:02.049Z,19.67
2018-08-03T08:19:31.894Z,20.83
2018-08-03T08:22:01.381Z,34.33
2018-08-03T08:24:30.864Z,20.60
2018-08-03T08:27:00.621Z,19.37
2018-08-03T08:29:30.118Z,18.53
2018-08-03T08:31:59.521Z,20.00
2018-08-03T08:34:28.938Z,19.53
2018-08-03T08:36:58.531Z,20.80
2018-08-03T08:39:28.217Z,19.97
2018-08-03T08:41:57.667Z,23.67
2018-08-03T08:44:27.476Z,21.67
2018-08-03T08:46:56.895Z,24.83
2018-08-03T08:49:26.369Z,17.17
2018-08-03T08:51:56.235Z,17.60
2018-08-03T08:54:26.230Z,23.70
2018-08-03T08:56:57.584Z,25.73
2018-08-03T08:59:27.076Z,22.53
2018-08-03T09:01:56.588Z,20.20
2018-08-03T09:04:26.183Z,28.20
2018-08-03T09:06:55.736Z,15.23
2018-08-03T09:09:25.441Z,20.80
2018-08-03T09:11:55.213Z,28.63
2018-08-03T09:14:24.779Z,16.07
2018-08-03T09:16:54.222Z,23.37
2018-08-03T09:19:23.869Z,26.17
2018-08-03T09:21:53.622Z,17.70
2018-08-03T09:24:23.431Z,18.27
2018-08-03T09:26:53.021Z,18.80
2018-08-03T09:29:23.472Z,20.50
2018-08-03T09:31:52.861Z,24.00
2018-08-03T09:34:22.725Z,19.37
2018-08-03T09:36:52.100Z,19.30
2018-08-03T09:39:21.496Z,17.57
2018-08-03T09:41:51.227Z,19.50
2018-08-03T09:44:20.634Z,17.07
2018-08-03T09:46:50.066Z,29.73
2018-08-03T09:49:19.544Z,22.17
2018-08-03T09:51:49.107Z,28.00
2018-08-03T09:54:18.607Z,15.13
2018-08-03T09:56:47.980Z,17.20
2018-08-03T09:59:17.457Z,19.07
2018-08-03T10:01:47.383Z,17.57
2018-08-03T10:04:17.016Z,17.50
2018-08-03T10:06:46.564Z,19.27
2018-08-03T10:09:16.020Z,24.40
2018-08-03T10:11:45.424Z,18.63
2018-08-03T10:14:14.837Z,19.07
2018-08-03T10:16:44.411Z,14.27
2018-08-03T10:19:13.824Z,18.97
2018-08-03T10:21:43.875Z,19.67
2018-08-03T10:24:13.315Z,28.13
2018-08-03T10:26:42.764Z,17.60
2018-08-03T10:29:12.217Z,19.40
2018-08-03T10:31:41.673Z,20.30
2018-08-03T10:34:11.139Z,16.53
2018-08-03T10:36:40.628Z,20.23
2018-08-03T10:39:10.956Z,15.07
2018-08-03T10:41:41.441Z,15.70
2018-08-03T10:44:11.585Z,13.83
2018-08-03T10:46:41.007Z,15.03
2018-08-03T10:49:10.449Z,16.60
2018-08-03T10:51:39.930Z,11.83
2018-08-03T10:54:09.361Z,15.00
2018-08-03T10:56:38.961Z,23.23
2018-08-03T10:59:08.410Z,16.47
2018-08-03T11:01:38.116Z,12.80
2018-08-03T11:04:07.889Z,14.10
2018-08-03T11:06:37.669Z,11.30
2018-08-03T11:09:08.988Z,27.00
2018-08-03T11:11:38.377Z,11.87
2018-08-03T11:14:07.785Z,12.70
2018-08-03T11:16:37.212Z,11.70
2018-08-03T11:19:06.681Z,15.00
2018-08-03T11:21:36.094Z,13.53
2018-08-03T11:24:05.810Z,13.17
2018-08-03T11:26:35.439Z,14.57
2018-08-03T11:29:04.905Z,13.80
2018-08-03T11:31:34.285Z,16.80
2018-08-03T11:34:04.341Z,16.73
2018-08-03T11:36:33.732Z,19.17
2018-08-03T11:39:03.231Z,11.63
2018-08-03T11:41:32.644Z,19.47
2018-08-03T11:44:02.034Z,9.87
2018-08-03T11:46:31.689Z,11.57
2018-08-03T11:49:01.104Z,11.23
2018-08-03T11:51:30.523Z,15.33
2018-08-03T11:53:59.983Z,14.73
2018-08-03T11:56:29.605Z,9.80
2018-08-03T11:59:02.868Z,15.00
2018-08-03T12:01:32.292Z,19.63
2018-08-03T12:04:01.697Z,11.13
2018-08-03T12:06:31.161Z,10.70
2018-08-03T12:09:00.686Z,12.93
2018-08-03T12:11:30.107Z,11.27
2018-08-03T12:13:59.821Z,10.87
2018-08-03T12:16:29.200Z,10.80
2018-08-03T12:18:58.646Z,12.73
2018-08-03T12:21:28.046Z,13.73
2018-08-03T12:23:57.928Z,9.60
2018-08-03T12:26:27.472Z,11.97
2018-08-03T12:28:57.611Z,10.07
2018-08-03T12:31:27.434Z,9.40
2018-08-03T12:33:56.928Z,10.83
2018-08-03T12:36:26.398Z,9.40
2018-08-03T12:38:56.709Z,10.97
2018-08-03T12:41:26.100Z,11.47
2018-08-03T12:43:58.264Z,16.50
2018-08-03T12:46:27.670Z,8.73
2018-08-03T12:48:57.077Z,11.33
2018-08-03T12:51:26.559Z,9.30
2018-08-03T12:53:56.142Z,8.70
2018-08-03T12:56:25.685Z,8.67
2018-08-03T12:58:55.060Z,6.00
2018-08-03T13:01:24.493Z,11.17
2018-08-03T13:03:53.876Z,5.83
2018-08-03T13:06:23.283Z,5.70
2018-08-03T13:08:53.495Z,14.63
2018-08-03T13:11:23.050Z,5.40
2018-08-03T13:13:53.156Z,5.17
2018-08-03T13:16:22.568Z,5.90
2018-08-03T13:18:52.204Z,4.77
2018-08-03T13:21:31.673Z,5.60
2018-08-03T13:24:01.999Z,5.93
2018-08-03T13:26:31.744Z,6.40
2018-08-03T13:29:01.351Z,5.70
2018-08-03T13:31:31.225Z,6.27
2018-08-03T13:34:01.065Z,9.73
2018-08-03T13:36:31.304Z,7.47
2018-08-03T13:39:00.793Z,5.43
2018-08-03T13:41:30.318Z,5.83
2018-08-03T13:44:00.081Z,7.57
2018-08-03T13:46:29.505Z,7.17
2018-08-03T13:48:58.933Z,5.80
2018-08-03T13:51:28.337Z,5.30
2018-08-03T13:53:57.723Z,5.73
2018-08-03T13:56:27.102Z,5.60
2018-08-03T13:58:56.490Z,5.80
2018-08-03T14:01:37.427Z,9.37
2018-08-03T14:04:06.963Z,5.63
2018-08-03T14:06:36.513Z,5.87
2018-08-03T14:09:07.254Z,8.10
2018-08-03T14:11:36.668Z,8.43
2018-08-03T14:14:06.139Z,5.80
2018-08-03T14:16:35.528Z,6.90
2018-08-03T14:19:05.679Z,6.30
2018-08-03T14:21:35.111Z,11.83
2018-08-03T14:24:04.885Z,5.20
2018-08-03T14:26:34.282Z,8.53
2018-08-03T14:29:03.727Z,6.43
2018-08-03T14:31:33.259Z,9.87
2018-08-03T14:34:02.904Z,8.20
2018-08-03T14:36:32.292Z,6.57
2018-08-03T14:39:01.761Z,6.83
2018-08-03T14:41:31.195Z,15.13
2018-08-03T14:44:00.629Z,7.40
2018-08-03T14:46:30.273Z,7.03
2018-08-03T14:48:59.680Z,8.50
2018-08-03T14:51:29.482Z,10.10
2018-08-03T14:53:58.879Z,7.57
2018-08-03T14:56:28.313Z,10.23
2018-08-03T14:58:57.760Z,12.17
2018-08-03T15:01:27.523Z,7.20
2018-08-03T15:03:57.729Z,7.63
2018-08-03T15:06:27.170Z,14.90
2018-08-03T15:08:57.056Z,7.30
2018-08-03T15:11:26.508Z,9.03
2018-08-03T15:13:55.938Z,10.10
2018-08-03T15:16:25.714Z,10.80
2018-08-03T15:18:55.170Z,8.77
2018-08-03T15:21:24.576Z,7.77
2018-08-03T15:23:54.021Z,9.00
2018-08-03T15:26:23.484Z,9.37
2018-08-03T15:28:52.873Z,8.47
2018-08-03T15:31:22.461Z,13.03
2018-08-03T15:33:51.900Z,16.30
2018-08-03T15:36:21.341Z,7.43
2018-08-03T15:38:50.768Z,9.83
2018-08-03T15:41:20.159Z,7.00
2018-08-03T15:43:49.551Z,15.50
2018-08-03T15:46:19.074Z,16.53
2018-08-03T15:48:48.426Z,11.73
2018-08-03T15:51:17.930Z,7.20
2018-08-03T15:53:47.334Z,7.77
2018-08-03T15:56:16.812Z,8.03
2018-08-03T15:58:46.321Z,14.73
2018-08-03T16:01:15.894Z,5.80
2018-08-03T16:03:45.285Z,5.83
2018-08-03T16:06:14.717Z,6.47
2018-08-03T16:08:44.116Z,6.77
2018-08-03T16:11:13.502Z,6.63
2018-08-03T16:13:42.877Z,7.50
2018-08-03T16:16:12.307Z,12.30
2018-08-03T16:18:41.666Z,5.47
2018-08-03T16:21:11.139Z,6.80
2018-08-03T16:23:40.534Z,11.30
2018-08-03T16:26:09.951Z,6.53
2018-08-03T16:28:39.348Z,8.60
2018-08-03T16:31:08.797Z,5.80
2018-08-03T16:33:38.229Z,10.70
2018-08-03T16:36:07.993Z,14.17
2018-08-03T16:38:37.444Z,21.57
2018-08-03T16:41:07.357Z,9.00
2018-08-03T16:43:36.752Z,6.90
2018-08-03T16:46:06.451Z,10.00
2018-08-03T16:48:36.178Z,8.03
2018-08-03T16:51:05.808Z,10.67
2018-08-03T16:53:35.230Z,20.27
2018-08-03T16:56:05.120Z,10.63
2018-08-03T16:58:34.583Z,9.23
2018-08-03T17:01:04.178Z,13.93
2018-08-03T17:03:33.694Z,7.03
2018-08-03T17:06:03.236Z,8.37
2018-08-03T17:08:33.222Z,8.27
2018-08-03T17:11:02.762Z,7.83
2018-08-03T17:13:32.164Z,11.37
2018-08-03T17:16:01.809Z,7.90
2018-08-03T17:18:31.259Z,13.10
2018-08-03T17:21:00.608Z,10.67
2018-08-03T17:23:30.002Z,9.07
2018-08-03T17:25:59.409Z,9.40
2018-08-03T17:28:28.863Z,16.00
2018-08-03T17:30:58.521Z,12.53
2018-08-03T17:33:27.961Z,12.83
2018-08-03T17:35:58.286Z,13.63
2018-08-03T17:38:27.849Z,12.83
2018-08-03T17:40:57.736Z,16.53
2018-08-03T17:43:27.237Z,17.13
2018-08-03T17:45:57.950Z,19.27
2018-08-03T17:48:27.651Z,14.00
2018-08-03T17:50:57.461Z,12.50
2018-08-03T17:53:26.898Z,20.57
2018-08-03T17:55:56.431Z,14.53
2018-08-03T17:58:25.961Z,22.87
2018-08-03T18:00:55.445Z,13.63
2018-08-03T18:03:25.022Z,23.60
2018-08-03T18:05:55.069Z,22.97
2018-08-03T18:08:24.689Z,21.93
2018-08-03T18:10:54.086Z,22.03
2018-08-03T18:13:23.736Z,18.00
2018-08-03T18:15:53.202Z,14.30
2018-08-03T18:18:22.842Z,15.83
2018-08-03T18:20:52.235Z,11.37
2018-08-03T18:23:21.633Z,10.70
2018-08-03T18:25:51.234Z,27.33
2018-08-03T18:28:20.637Z,10.93
2018-08-03T18:30:50.364Z,11.97
2018-08-03T18:33:19.834Z,13.33
2018-08-03T18:35:50.264Z,12.13
2018-08-03T18:38:19.788Z,13.60
2018-08-03T18:40:49.245Z,18.50
2018-08-03T18:43:18.963Z,16.30
2018-08-03T18:45:48.390Z,14.27
2018-08-03T18:48:17.810Z,20.77
2018-08-03T18:50:48.149Z,20.23
2018-08-03T18:53:17.564Z,14.70
2018-08-03T18:55:47.001Z,16.63
2018-08-03T18:58:16.411Z,16.67
2018-08-03T19:00:46.017Z,16.80
2018-08-03T19:03:15.488Z,20.30
2018-08-03T19:05:44.949Z,15.93
2018-08-03T19:08:14.356Z,12.43
2018-08-03T19:10:43.837Z,16.90
2018-08-03T19:13:13.370Z,18.47
2018-08-03T19:15:43.111Z,12.50
2018-08-03T19:18:12.674Z,17.37
2018-08-03T19:20:42.124Z,16.83
2018-08-03T19:23:11.698Z,15.87
2018-08-03T19:25:41.115Z,14.27
2018-08-03T19:28:10.508Z,13.13
2018-08-03T19:30:39.924Z,11.57
2018-08-03T19:33:09.352Z,22.40
2018-08-03T19:35:39.056Z,14.47
2018-08-03T19:38:08.706Z,14.10
2018-08-03T19:40:38.117Z,16.67
2018-08-03T19:43:07.589Z,21.30
2018-08-03T19:45:36.999Z,20.50
2018-08-03T19:48:06.404Z,20.43
2018-08-03T19:50:35.829Z,16.07
2018-08-03T19:53:05.368Z,21.20
2018-08-03T19:55:35.269Z,16.63
2018-08-03T19:58:04.997Z,15.60
2018-08-03T20:00:34.434Z,16.20
2018-08-03T20:03:04.108Z,23.17
2018-08-03T20:05:33.624Z,38.33
2018-08-03T20:08:03.481Z,26.53
2018-08-03T20:10:32.918Z,13.37
2018-08-03T20:13:02.405Z,21.23
2018-08-03T20:15:31.808Z,20.83
2018-08-03T20:18:01.298Z,22.07
2018-08-03T20:20:30.743Z,17.03
2018-08-03T20:23:00.151Z,12.87
2018-08-03T20:25:29.980Z,17.20
2018-08-03T20:27:59.473Z,17.20
2018-08-03T20:30:28.916Z,15.30
2018-08-03T20:32:59.478Z,14.90
2018-08-03T20:35:29.238Z,15.93
2018-08-03T20:37:58.681Z,15.23
2018-08-03T20:40:28.144Z,17.30
2018-08-03T20:42:58.473Z,18.73
2018-08-03T20:45:27.897Z,16.83
2018-08-03T20:47:57.335Z,18.97
2018-08-03T20:50:26.865Z,17.00
2018-08-03T20:52:56.293Z,14.87
2018-08-03T20:55:26.492Z,15.17
2018-08-03T20:57:56.076Z,13.13
2018-08-03T21:00:25.541Z,15.40
2018-08-03T21:02:54.930Z,23.03
2018-08-03T21:05:24.600Z,19.93
2018-08-03T21:07:54.026Z,27.13
2018-08-03T21:10:23.452Z,24.23
2018-08-03T21:12:53.028Z,20.30
2018-08-03T21:15:22.423Z,18.70
2018-08-03T21:17:52.033Z,20.30
2018-08-03T21:20:21.450Z,22.27
2018-08-03T21:22:50.929Z,16.30
2018-08-03T21:25:20.649Z,21.30
2018-08-03T21:27:50.114Z,17.53
2018-08-03T21:30:19.590Z,20.57
2018-08-03T21:32:49.210Z,17.53
2018-08-03T21:35:18.695Z,24.33
2018-08-03T21:37:48.151Z,19.70
2018-08-03T21:40:17.580Z,19.93
2018-08-03T21:42:47.049Z,16.50
2018-08-03T21:45:16.541Z,18.40
2018-08-03T21:47:45.971Z,21.17
2018-08-03T21:50:16.554Z,17.73
2018-08-03T21:52:47.846Z,21.90
2018-08-03T21:55:17.795Z,17.40
2018-08-03T21:57:48.569Z,21.40
2018-08-03T22:00:20.876Z,14.47
2018-08-03T22:02:51.119Z,13.27
2018-08-03T22:05:20.993Z,18.57
2018-08-03T22:07:50.877Z,19.43
2018-08-03T22:10:20.318Z,23.70
2018-08-03T22:12:49.783Z,19.60
2018-08-03T22:15:19.202Z,19.20
2018-08-03T22:17:48.713Z,20.60
2018-08-03T22:20:18.437Z,17.93
2018-08-03T22:22:48.174Z,21.40
2018-08-03T22:25:17.732Z,17.60
2018-08-03T22:27:47.252Z,22.27
2018-08-03T22:30:18.758Z,19.03
2018-08-03T22:32:49.146Z,20.53
2018-08-03T22:35:18.806Z,27.30
2018-08-03T22:37:48.289Z,21.60
2018-08-03T22:40:17.770Z,23.03
2018-08-03T22:42:47.432Z,22.10
2018-08-03T22:45:17.079Z,33.70
2018-08-03T22:47:46.551Z,20.70
2018-08-03T22:50:16.301Z,16.67
2018-08-03T22:52:45.722Z,15.90
2018-08-03T22:55:15.184Z,30.17
2018-08-03T22:57:44.607Z,24.10
2018-08-03T23:00:14.020Z,27.47
2018-08-03T23:02:43.453Z,20.27
2018-08-03T23:05:13.198Z,20.60
2018-08-03T23:07:42.702Z,17.30
2018-08-03T23:10:12.106Z,15.70
2018-08-03T23:12:41.578Z,26.43
2018-08-03T23:15:10.984Z,15.60
2018-08-03T23:17:40.397Z,18.83
2018-08-03T23:20:09.801Z,22.93
2018-08-03T23:22:39.552Z,28.10
2018-08-03T23:25:08.984Z,16.60
2018-08-03T23:27:38.421Z,22.37
2018-08-03T23:30:08.948Z,15.40
2018-08-03T23:32:38.658Z,18.53
2018-08-03T23:35:08.117Z,18.23
2018-08-03T23:37:37.628Z,19.90
2018-08-03T23:40:07.182Z,17.57
2018-08-03T23:42:36.981Z,17.60
2018-08-03T23:45:07.237Z,23.33
2018-08-03T23:47:37.153Z,21.83
2018-08-03T23:50:12.060Z,19.27
2018-08-03T23:52:41.892Z,19.77
2018-08-03T23:55:11.366Z,20.87
2018-08-03T23:57:40.825Z,16.17
